sim
Sign-in with your pilot id or email,
or register
Callsign
Passwort

Schedule Details

Flight Number: OEO7365
Departure: Johannesburg OR Tambo International Airport (FAOR) at 09:00
Arrival: Munich Airport (EDDM) at 20:30

Weather Information
Getting current METAR information for FAOR 191130Z VRB07KT CAVOK 26/04 Q1024 NOSIG
Getting current METAR information for EDDM 191150Z VRB04KT CAVOK 20/12 Q1019 NOSIG

Schedule Frequency

Route Map